createdAt,value
2023-04-02T00:01:07.050Z,2.63
2023-04-02T00:02:45.029Z,2.80
2023-04-02T00:04:16.395Z,2.65
2023-04-02T00:05:50.174Z,1.95
2023-04-02T00:07:17.165Z,2.55
2023-04-02T00:08:29.737Z,2.45
2023-04-02T00:09:37.154Z,2.15
2023-04-02T00:10:46.997Z,2.38
2023-04-02T00:11:54.912Z,2.30
2023-04-02T00:13:06.798Z,2.13
2023-04-02T00:14:18.315Z,2.08
2023-04-02T00:15:20.565Z,1.88
2023-04-02T00:16:25.345Z,2.15
2023-04-02T00:17:27.625Z,1.95
2023-04-02T00:18:33.608Z,2.35
2023-04-02T00:19:38.516Z,2.10
2023-04-02T00:20:44.070Z,2.15
2023-04-02T00:21:47.466Z,2.00
2023-04-02T00:22:50.498Z,1.92
2023-04-02T00:23:54.634Z,2.05
2023-04-02T00:24:59.973Z,2.22
2023-04-02T00:26:02.219Z,1.90
2023-04-02T00:27:07.310Z,2.00
2023-04-02T00:28:12.664Z,1.77
2023-04-02T00:29:16.817Z,1.98
2023-04-02T00:30:19.077Z,1.65
2023-04-02T00:31:21.858Z,1.60
2023-04-02T00:32:27.622Z,2.22
2023-04-02T00:33:32.345Z,1.77
2023-04-02T00:34:40.757Z,1.70
2023-04-02T00:35:50.834Z,1.73
2023-04-02T00:36:57.547Z,1.63
2023-04-02T00:38:00.529Z,2.15
2023-04-02T00:39:07.589Z,1.80
2023-04-02T00:40:16.886Z,1.70
2023-04-02T00:41:24.340Z,1.80
2023-04-02T00:42:29.223Z,1.70
2023-04-02T00:43:35.923Z,1.58
2023-04-02T00:44:43.653Z,1.42
2023-04-02T00:45:52.591Z,1.60
2023-04-02T00:46:55.444Z,1.85
2023-04-02T00:48:13.806Z,1.70
2023-04-02T00:49:25.150Z,1.35
2023-04-02T00:50:33.424Z,1.35
2023-04-02T00:51:38.704Z,1.52
2023-04-02T00:52:43.246Z,1.50
2023-04-02T00:53:47.938Z,1.63
2023-04-02T00:54:53.199Z,1.40
2023-04-02T00:55:57.530Z,1.58
2023-04-02T00:57:00.152Z,1.45
2023-04-02T00:58:04.366Z,1.65
2023-04-02T00:59:19.506Z,1.45
2023-04-02T01:00:24.256Z,1.33
2023-04-02T01:01:29.696Z,1.33
2023-04-02T01:02:33.794Z,1.20
2023-04-02T01:03:39.124Z,1.60
2023-04-02T01:04:51.638Z,1.10
2023-04-02T01:06:01.776Z,1.20
2023-04-02T01:07:06.962Z,1.00
2023-04-02T01:08:17.639Z,1.38
2023-04-02T01:09:33.867Z,1.10
2023-04-02T01:10:50.023Z,1.33
2023-04-02T01:12:21.528Z,0.93
2023-04-02T01:13:31.311Z,1.48
2023-04-02T01:14:45.903Z,1.48
2023-04-02T01:15:53.478Z,0.95
2023-04-02T01:17:03.474Z,1.20
2023-04-02T01:18:31.615Z,1.10
2023-04-02T01:19:54.426Z,1.05
2023-04-02T01:21:44.044Z,1.02
2023-04-02T01:22:53.296Z,1.63
2023-04-02T01:24:04.329Z,1.05
2023-04-02T01:25:08.625Z,0.90
2023-04-02T01:26:20.588Z,1.20
2023-04-02T01:27:27.736Z,1.08
2023-04-02T01:28:45.678Z,0.90
2023-04-02T01:29:53.415Z,0.88
2023-04-02T01:30:58.422Z,0.73
2023-04-02T01:33:14.705Z,1.00
2023-04-02T01:34:20.723Z,0.90
2023-04-02T01:35:28.267Z,1.08
2023-04-02T01:36:46.757Z,1.10
2023-04-02T01:37:56.550Z,0.98
2023-04-02T01:39:07.114Z,0.73
2023-04-02T01:40:34.888Z,0.80
2023-04-02T01:41:50.178Z,0.90
2023-04-02T01:43:00.107Z,0.90
2023-04-02T01:44:08.029Z,0.70
2023-04-02T01:45:12.728Z,0.82
2023-04-02T01:46:30.208Z,0.80
2023-04-02T01:47:33.422Z,0.95
2023-04-02T01:48:35.872Z,0.90
2023-04-02T01:49:40.255Z,0.60
2023-04-02T01:50:45.501Z,0.80
2023-04-02T01:51:53.834Z,0.85
2023-04-02T01:52:59.787Z,0.73
2023-04-02T01:54:05.049Z,0.90
2023-04-02T01:55:08.606Z,0.90
2023-04-02T01:56:11.145Z,0.70
2023-04-02T01:57:13.712Z,0.90
2023-04-02T01:58:21.450Z,0.80
2023-04-02T01:59:26.602Z,0.60
2023-04-02T02:00:41.646Z,0.82
2023-04-02T02:02:03.596Z,0.60
2023-04-02T02:03:23.674Z,0.60
2023-04-02T02:04:26.373Z,0.60
2023-04-02T02:05:31.360Z,0.60
2023-04-02T02:06:33.894Z,0.80
2023-04-02T02:07:36.208Z,0.80
2023-04-02T02:08:43.323Z,0.80
2023-04-02T02:09:46.539Z,0.68
2023-04-02T02:10:51.669Z,0.73
2023-04-02T02:11:53.995Z,0.70
2023-04-02T02:13:00.363Z,0.70
2023-04-02T02:14:12.149Z,0.60
2023-04-02T02:15:18.717Z,0.80
2023-04-02T02:16:21.615Z,0.75
2023-04-02T02:17:31.206Z,0.73
2023-04-02T02:18:34.081Z,0.70
2023-04-02T02:19:40.380Z,0.82
2023-04-02T02:20:43.007Z,1.15
2023-04-02T02:21:50.099Z,1.10
2023-04-02T02:22:52.688Z,1.00
2023-04-02T02:23:56.298Z,0.85
2023-04-02T02:25:00.776Z,0.80
2023-04-02T02:26:06.264Z,0.88
2023-04-02T02:27:34.470Z,0.82
2023-04-02T02:28:42.579Z,1.10
2023-04-02T02:29:46.533Z,0.90
2023-04-02T02:30:54.179Z,0.80
2023-04-02T02:31:57.864Z,0.90
2023-04-02T08:28:28.051Z,0.70
2023-04-02T08:29:32.290Z,0.52
2023-04-02T08:30:34.513Z,0.68
2023-04-02T08:31:36.830Z,0.65
2023-04-02T08:32:41.234Z,0.82
2023-04-02T08:33:43.572Z,0.40
2023-04-02T08:34:46.381Z,0.40
2023-04-02T08:35:49.645Z,0.50
2023-04-02T08:36:55.554Z,0.45
2023-04-02T08:37:57.700Z,0.47
2023-04-02T08:38:59.817Z,0.70
2023-04-02T08:40:05.073Z,0.73
2023-04-02T08:41:07.368Z,0.50
2023-04-02T08:42:22.656Z,0.60
2023-04-02T08:43:51.542Z,0.47
2023-04-02T08:45:23.039Z,0.30
2023-04-02T08:46:30.809Z,0.60
2023-04-02T08:47:40.520Z,0.70
2023-04-02T08:48:55.328Z,0.50
2023-04-02T08:50:00.978Z,0.60
2023-04-02T08:51:05.018Z,0.60
2023-04-02T08:52:15.621Z,0.65
2023-04-02T08:53:22.074Z,0.75
2023-04-02T08:54:27.999Z,0.70
2023-04-02T08:55:38.719Z,0.45
2023-04-02T08:56:45.142Z,0.60
2023-04-02T08:57:54.463Z,0.50
2023-04-02T08:59:02.226Z,0.40
2023-04-02T09:00:11.982Z,0.93
2023-04-02T09:01:23.880Z,0.50
2023-04-02T09:02:34.974Z,0.40
2023-04-02T09:03:41.619Z,0.50
2023-04-02T09:04:43.935Z,0.70
2023-04-02T09:05:47.286Z,0.80
2023-04-02T09:06:52.492Z,0.70
2023-04-02T09:07:58.487Z,0.55
2023-04-02T09:09:01.212Z,0.40
2023-04-02T09:10:07.370Z,0.50
2023-04-02T09:11:18.372Z,0.55
2023-04-02T09:12:25.820Z,0.40
2023-04-02T09:13:33.417Z,0.70
2023-04-02T09:14:43.652Z,0.60
2023-04-02T09:15:46.391Z,0.55
2023-04-02T09:16:54.450Z,0.50
2023-04-02T09:18:00.253Z,0.80
2023-04-02T09:19:05.549Z,0.50
2023-04-02T09:20:19.202Z,0.85
2023-04-02T09:21:37.232Z,0.60
2023-04-02T09:22:40.150Z,0.80
2023-04-02T09:23:42.258Z,0.60
2023-04-02T09:24:44.413Z,0.50
2023-04-02T09:26:03.050Z,0.60
2023-04-02T09:27:18.698Z,0.38
2023-04-02T09:28:23.613Z,0.57
2023-04-02T09:29:43.524Z,1.00
2023-04-02T09:31:00.951Z,0.80
2023-04-02T09:32:19.128Z,0.70
2023-04-02T09:33:41.119Z,0.70
2023-04-02T09:34:43.344Z,0.60
2023-04-02T09:35:56.085Z,0.50
2023-04-02T09:37:08.149Z,0.70
2023-04-02T09:38:22.026Z,0.43
2023-04-02T09:39:28.170Z,0.25
2023-04-02T09:40:33.480Z,0.40
2023-04-02T09:41:37.482Z,0.55
2023-04-02T09:42:39.630Z,0.43
2023-04-02T09:43:41.896Z,0.50
2023-04-02T09:44:45.434Z,0.50
2023-04-02T09:45:58.502Z,0.55
2023-04-02T09:47:05.577Z,0.80
2023-04-02T09:48:22.988Z,0.47
2023-04-02T09:49:27.153Z,0.50
2023-04-02T09:50:31.832Z,0.60
2023-04-02T09:51:36.533Z,0.60
2023-04-02T09:52:38.736Z,0.32
2023-04-02T09:53:43.026Z,0.85
2023-04-02T09:54:45.986Z,0.60
2023-04-02T09:55:48.045Z,0.57
2023-04-02T09:57:01.118Z,0.60
2023-04-02T09:58:14.000Z,0.50
2023-04-02T09:59:18.067Z,0.40
2023-04-02T10:00:32.128Z,0.43
2023-04-02T10:01:36.830Z,0.50
2023-04-02T10:02:40.316Z,0.50
2023-04-02T10:03:43.762Z,0.80
2023-04-02T10:04:48.711Z,0.60
2023-04-02T10:06:08.328Z,0.55
2023-04-02T10:07:31.465Z,0.40
2023-04-02T10:08:34.148Z,0.40
2023-04-02T10:09:38.543Z,0.50
2023-04-02T10:10:44.883Z,0.80
2023-04-02T10:11:47.506Z,0.47
2023-04-02T10:12:57.645Z,0.50
2023-04-02T10:14:03.386Z,0.70
2023-04-02T10:15:07.446Z,0.60
2023-04-02T10:16:15.684Z,0.38
2023-04-02T10:17:20.872Z,0.40
2023-04-02T10:18:33.459Z,0.50
2023-04-02T10:19:38.913Z,0.50
2023-04-02T10:20:51.070Z,0.50
2023-04-02T10:21:55.284Z,0.50
2023-04-02T10:22:59.255Z,0.80
2023-04-02T10:24:03.000Z,0.40
2023-04-02T10:25:13.692Z,0.50
2023-04-02T10:26:34.042Z,0.60
2023-04-02T10:27:48.959Z,0.45
2023-04-02T10:29:06.876Z,0.30
2023-04-02T10:30:19.441Z,0.50
2023-04-02T10:31:25.627Z,0.30
2023-04-02T10:32:34.996Z,0.40
2023-04-02T10:33:38.582Z,0.47
2023-04-02T10:34:46.601Z,0.50
2023-04-02T10:35:56.358Z,0.50
2023-04-02T10:37:03.712Z,0.60
2023-04-02T10:38:22.424Z,0.50
2023-04-02T10:39:33.766Z,0.60
2023-04-02T10:40:39.969Z,0.40
2023-04-02T10:41:51.458Z,0.40
2023-04-02T10:43:12.355Z,0.60
2023-04-02T10:44:37.614Z,0.30
2023-04-02T10:45:45.866Z,0.57
2023-04-02T10:47:00.789Z,0.80
2023-04-02T10:48:10.641Z,0.80
2023-04-02T10:49:22.909Z,0.30
2023-04-02T10:50:32.573Z,0.30
2023-04-02T10:51:41.645Z,0.30
2023-04-02T10:52:51.667Z,0.50
2023-04-02T10:53:59.485Z,0.60
2023-04-02T10:55:04.305Z,0.73
2023-04-02T10:56:11.627Z,0.60
2023-04-02T10:57:33.920Z,0.50
2023-04-02T10:58:43.106Z,0.77
2023-04-02T10:59:49.436Z,0.40
2023-04-02T11:00:55.192Z,0.40
2023-04-02T11:02:02.663Z,0.30
2023-04-02T11:03:08.223Z,0.30
2023-04-02T11:04:17.593Z,0.40
2023-04-02T11:05:29.157Z,0.50
2023-04-02T11:06:38.283Z,0.60
2023-04-02T11:07:50.017Z,0.60
2023-04-02T11:08:55.819Z,0.77
2023-04-02T11:09:59.862Z,0.90
2023-04-02T11:11:07.990Z,0.70
2023-04-02T11:12:22.041Z,0.73
2023-04-02T11:13:28.180Z,1.13
2023-04-02T11:14:31.924Z,0.90
2023-04-02T11:15:36.650Z,0.88
2023-04-02T11:16:44.075Z,1.38
2023-04-02T11:17:48.826Z,1.05
2023-04-02T11:19:23.730Z,0.80
2023-04-02T11:20:58.305Z,0.70
2023-04-02T11:22:04.332Z,0.80
2023-04-02T11:23:11.473Z,1.08
2023-04-02T11:24:26.647Z,1.00
2023-04-02T11:25:28.801Z,0.65
2023-04-02T11:26:41.295Z,0.60
2023-04-02T11:27:43.540Z,0.80
2023-04-02T11:28:46.443Z,0.70
2023-04-02T11:29:50.296Z,0.57
2023-04-02T11:30:52.874Z,0.55
2023-04-02T11:32:29.800Z,0.82
2023-04-02T11:33:46.137Z,0.75
2023-04-02T11:35:07.280Z,0.88
2023-04-02T11:36:43.427Z,0.60
2023-04-02T11:37:46.291Z,0.70
2023-04-02T11:38:52.471Z,0.90
2023-04-02T11:39:57.136Z,0.70
2023-04-02T11:40:59.918Z,0.88
2023-04-02T11:42:04.735Z,1.75
2023-04-02T11:43:51.785Z,0.80
2023-04-02T11:44:54.697Z,0.80
2023-04-02T11:45:59.461Z,0.98
2023-04-02T11:47:19.888Z,0.95
2023-04-02T11:48:28.501Z,1.05
2023-04-02T11:49:50.921Z,1.35
2023-04-02T11:50:53.152Z,0.90
2023-04-02T11:52:09.099Z,1.00
2023-04-02T11:53:22.090Z,0.95
2023-04-02T11:54:29.066Z,1.40
2023-04-02T11:55:32.667Z,0.73
2023-04-02T11:56:43.218Z,0.90
2023-04-02T11:57:57.824Z,0.73
2023-04-02T11:59:09.231Z,0.90
2023-04-02T12:00:48.790Z,1.08
2023-04-02T12:02:11.239Z,0.70
2023-04-02T12:03:43.850Z,0.82
2023-04-02T12:05:10.621Z,0.80
2023-04-02T12:06:25.773Z,0.80
2023-04-02T12:07:55.811Z,0.82
2023-04-02T12:09:14.788Z,1.70
2023-04-02T12:10:19.035Z,1.10
2023-04-02T12:11:31.429Z,1.00
2023-04-02T12:12:38.187Z,2.00
2023-04-02T12:13:52.601Z,1.00
2023-04-02T12:14:55.968Z,1.35
2023-04-02T12:15:58.871Z,1.98
2023-04-02T12:17:02.128Z,1.30
2023-04-02T12:18:11.540Z,2.00
2023-04-02T12:19:16.664Z,1.70
2023-04-02T12:20:22.848Z,0.95
2023-04-02T12:21:27.240Z,1.25
2023-04-02T12:22:31.137Z,1.50
2023-04-02T12:23:36.814Z,1.30
2023-04-02T12:24:40.998Z,0.70
2023-04-02T12:25:47.027Z,1.23
2023-04-02T12:26:49.539Z,1.27
2023-04-02T12:28:04.690Z,1.63
2023-04-02T12:29:22.014Z,1.40
2023-04-02T12:30:24.696Z,1.10
2023-04-02T12:31:27.822Z,0.90
2023-04-02T12:32:31.275Z,1.60
2023-04-02T12:33:37.537Z,2.03
2023-04-02T12:34:46.511Z,2.97
2023-04-02T12:35:51.285Z,1.75
2023-04-02T12:36:59.698Z,2.50
2023-04-02T12:38:02.259Z,1.65
2023-04-02T12:39:04.334Z,0.80
2023-04-02T12:40:17.816Z,1.25
2023-04-02T12:41:24.309Z,1.30
2023-04-02T12:42:28.913Z,0.82
2023-04-02T12:43:32.663Z,1.02
2023-04-02T12:44:34.864Z,1.40
2023-04-02T12:45:37.355Z,1.13
2023-04-02T12:46:40.683Z,1.25
2023-04-02T12:47:45.486Z,5.18
2023-04-02T12:48:47.689Z,1.80
2023-04-02T12:49:51.272Z,1.40
2023-04-02T12:50:55.689Z,1.75
2023-04-02T12:51:58.433Z,1.30
2023-04-02T12:53:01.362Z,1.30
2023-04-02T12:54:03.967Z,1.67
2023-04-02T12:55:07.281Z,4.40
2023-04-02T12:56:19.482Z,1.20
2023-04-02T12:57:40.555Z,1.20
2023-04-02T12:58:43.109Z,1.60
2023-04-02T12:59:45.297Z,2.92
2023-04-02T13:01:08.565Z,2.25
2023-04-02T13:02:19.040Z,2.00
2023-04-02T13:03:22.501Z,1.30
2023-04-02T13:04:24.786Z,1.42
2023-04-02T13:05:36.262Z,1.00
2023-04-02T13:06:41.535Z,1.13
2023-04-02T13:07:47.958Z,1.50
2023-04-02T13:08:50.946Z,1.45
2023-04-02T13:09:54.587Z,1.27
2023-04-02T13:10:59.433Z,1.10
2023-04-02T13:12:02.837Z,0.80
2023-04-02T13:13:05.155Z,0.88
2023-04-02T13:14:16.500Z,0.70
2023-04-02T13:15:23.580Z,1.00
2023-04-02T13:16:29.131Z,0.82
2023-04-02T13:17:42.803Z,1.60
2023-04-02T13:18:46.748Z,1.50
2023-04-02T13:19:49.079Z,1.00
2023-04-02T13:20:58.312Z,1.13
2023-04-02T13:22:03.451Z,1.13
2023-04-02T13:23:25.036Z,1.00
2023-04-02T13:24:28.813Z,1.33
2023-04-02T13:25:35.469Z,1.40
2023-04-02T13:26:37.574Z,1.20
2023-04-02T13:27:39.676Z,1.00
2023-04-02T13:28:42.048Z,1.23
2023-04-02T13:29:44.166Z,1.08
2023-04-02T13:30:46.708Z,0.93
2023-04-02T13:31:49.888Z,1.10
2023-04-02T13:32:52.191Z,1.08
2023-04-02T13:33:54.372Z,0.98
2023-04-02T13:34:59.532Z,1.30
2023-04-02T13:36:01.893Z,0.88
2023-04-02T13:37:05.464Z,1.23
2023-04-02T13:38:08.666Z,1.35
2023-04-02T13:39:10.934Z,1.00
2023-04-02T13:40:14.936Z,1.00
2023-04-02T13:41:22.392Z,1.00
2023-04-02T13:42:24.546Z,1.05
2023-04-02T13:43:26.718Z,1.20
2023-04-02T13:44:31.294Z,1.00
2023-04-02T13:45:36.424Z,1.10
2023-04-02T13:46:38.544Z,0.90
2023-04-02T13:47:41.338Z,0.90
2023-04-02T13:48:43.746Z,1.05
2023-04-02T13:49:45.898Z,1.23
2023-04-02T13:50:48.097Z,0.90
2023-04-02T13:51:52.438Z,1.17
2023-04-02T13:52:58.292Z,1.08
2023-04-02T13:54:00.425Z,1.00
2023-04-02T13:55:03.531Z,0.95
2023-04-02T13:56:06.483Z,0.82
2023-04-02T13:57:08.871Z,0.70
2023-04-02T13:58:11.524Z,0.95
2023-04-02T13:59:14.193Z,0.80
2023-04-02T14:00:17.867Z,0.80
2023-04-02T14:01:23.116Z,0.70
2023-04-02T14:02:25.928Z,0.70
2023-04-02T14:03:28.374Z,0.85
2023-04-02T14:04:35.188Z,0.73
2023-04-02T14:05:44.333Z,0.85
2023-04-02T14:07:22.575Z,0.80
2023-04-02T14:08:34.011Z,0.50
2023-04-02T14:09:47.978Z,0.82
2023-04-02T14:11:04.641Z,0.68
2023-04-02T14:12:17.211Z,0.73
2023-04-02T14:13:42.824Z,0.50
2023-04-02T14:15:05.264Z,0.73
2023-04-02T14:16:28.106Z,0.88
2023-04-02T14:17:43.577Z,1.23
2023-04-02T14:19:02.238Z,0.93
2023-04-02T14:20:23.182Z,0.82
2023-04-02T14:21:33.107Z,0.75
2023-04-02T14:22:52.029Z,1.10
2023-04-02T14:24:16.106Z,0.70
2023-04-02T14:25:28.960Z,0.43
2023-04-02T14:26:41.265Z,0.82
2023-04-02T14:27:51.472Z,0.73
2023-04-02T14:29:01.580Z,0.57
2023-04-02T14:30:10.391Z,1.13
2023-04-02T14:31:22.381Z,0.82
2023-04-02T14:32:29.035Z,0.90
2023-04-02T14:33:42.083Z,0.75
2023-04-02T14:34:51.590Z,0.73
2023-04-02T14:36:02.909Z,1.10
2023-04-02T14:38:19.495Z,0.93
2023-04-02T14:39:31.515Z,0.63
2023-04-02T14:40:39.774Z,0.65
2023-04-02T14:41:50.186Z,0.70
2023-04-02T14:42:58.021Z,0.60
2023-04-02T14:44:03.275Z,0.68
2023-04-02T14:45:12.051Z,0.70
2023-04-02T14:46:14.382Z,0.75
2023-04-02T14:47:21.764Z,0.63
2023-04-02T14:48:32.879Z,0.70
2023-04-02T14:49:40.011Z,0.50
2023-04-02T14:50:43.392Z,0.75
2023-04-02T14:51:50.142Z,0.80
2023-04-02T14:52:56.707Z,0.85
2023-04-02T14:54:04.884Z,1.00
2023-04-02T14:55:14.554Z,0.82
2023-04-02T14:56:19.649Z,0.88
2023-04-02T14:57:24.482Z,0.50
2023-04-02T14:58:33.701Z,0.73
2023-04-02T14:59:39.906Z,0.80
2023-04-02T15:00:46.066Z,0.60
2023-04-02T15:01:53.001Z,0.60
2023-04-02T15:03:03.513Z,0.90
2023-04-02T15:04:10.726Z,0.70
2023-04-02T15:05:18.760Z,0.70
2023-04-02T15:06:26.245Z,0.60
2023-04-02T15:07:34.800Z,0.90
2023-04-02T15:08:40.562Z,0.90
2023-04-02T15:09:46.882Z,0.90
2023-04-02T15:11:08.053Z,0.90
2023-04-02T15:12:17.178Z,0.77
2023-04-02T15:13:25.460Z,1.33
2023-04-02T15:14:32.918Z,0.70
2023-04-02T15:15:41.630Z,0.90
2023-04-02T15:16:44.219Z,0.80
2023-04-02T15:17:46.501Z,0.80
2023-04-02T15:18:52.129Z,0.90
2023-04-02T15:20:07.281Z,0.85
2023-04-02T15:21:55.733Z,0.93
2023-04-02T15:23:07.002Z,1.20
2023-04-02T15:24:15.716Z,0.93
2023-04-02T15:25:35.244Z,0.80
2023-04-02T15:26:49.841Z,0.80
2023-04-02T15:28:02.340Z,1.25
2023-04-02T15:29:28.425Z,1.10
2023-04-02T15:30:37.918Z,1.05
2023-04-02T15:31:46.470Z,0.65
2023-04-02T15:32:49.360Z,1.13
2023-04-02T15:34:02.250Z,1.00
2023-04-02T15:35:12.719Z,1.10
2023-04-02T15:36:47.310Z,1.10
2023-04-02T15:37:57.979Z,0.90
2023-04-02T15:39:13.306Z,1.50
2023-04-02T15:40:30.755Z,0.95
2023-04-02T15:41:40.915Z,1.45
2023-04-02T15:42:52.679Z,1.23
2023-04-02T15:44:03.221Z,0.80
2023-04-02T15:45:22.222Z,1.08
2023-04-02T15:46:31.175Z,1.15
2023-04-02T15:47:44.728Z,0.95
2023-04-02T15:49:12.756Z,1.00
2023-04-02T15:50:34.013Z,1.08
2023-04-02T15:51:49.896Z,0.80
2023-04-02T15:52:58.828Z,0.80
2023-04-02T15:54:12.499Z,1.20
2023-04-02T15:55:25.950Z,0.90
2023-04-02T15:56:40.345Z,0.93
2023-04-02T15:58:22.000Z,1.00
2023-04-02T15:59:41.920Z,0.75
2023-04-02T16:00:51.877Z,0.80
2023-04-02T16:01:59.627Z,0.80
2023-04-02T16:03:22.461Z,1.10
2023-04-02T16:04:45.782Z,1.13
2023-04-02T16:06:00.732Z,0.95
2023-04-02T16:07:20.345Z,0.90
2023-04-02T16:08:41.942Z,0.70
2023-04-02T16:10:49.682Z,0.90
2023-04-02T16:11:59.834Z,1.17
2023-04-02T16:13:15.461Z,1.20
2023-04-02T16:14:25.386Z,1.05
2023-04-02T16:15:34.536Z,1.00
2023-04-02T16:16:38.202Z,0.90
2023-04-02T16:17:45.216Z,1.30
2023-04-02T16:18:55.088Z,0.90
2023-04-02T16:20:05.504Z,1.10
2023-04-02T16:21:10.555Z,1.30
2023-04-02T16:22:18.158Z,1.38
2023-04-02T16:23:29.788Z,1.48
2023-04-02T16:24:31.929Z,1.45
2023-04-02T16:25:41.267Z,1.13
2023-04-02T16:26:52.684Z,1.38
2023-04-02T16:28:18.639Z,1.45
2023-04-02T16:29:47.363Z,1.25
2023-04-02T16:31:02.966Z,1.20
2023-04-02T16:32:14.227Z,1.00
2023-04-02T16:34:36.238Z,1.10
2023-04-02T16:35:45.411Z,1.15
2023-04-02T16:36:54.807Z,1.70
2023-04-02T16:38:02.492Z,1.90
2023-04-02T16:39:16.610Z,2.08
2023-04-02T16:40:33.453Z,1.25
2023-04-02T16:41:49.191Z,1.55
2023-04-02T16:43:01.536Z,1.35
2023-04-02T16:44:14.772Z,1.48
2023-04-02T16:45:29.937Z,1.77
2023-04-02T16:46:40.897Z,2.08
2023-04-02T16:48:00.639Z,1.35
2023-04-02T16:49:15.445Z,1.80
2023-04-02T16:50:30.324Z,1.70
2023-04-02T16:51:40.313Z,2.75
2023-04-02T16:52:51.161Z,2.20
2023-04-02T16:54:02.128Z,2.53
2023-04-02T16:55:23.474Z,2.00
2023-04-02T16:56:46.385Z,1.90
2023-04-02T16:57:55.572Z,1.60
2023-04-02T16:59:10.407Z,1.73
2023-04-02T17:00:21.464Z,1.85
2023-04-02T17:01:34.056Z,1.80
2023-04-02T17:02:47.627Z,1.65
2023-04-02T17:04:15.134Z,1.60
2023-04-02T17:05:29.429Z,1.30
2023-04-02T17:06:42.211Z,1.40
2023-04-02T17:07:50.323Z,1.40
2023-04-02T17:09:00.803Z,1.13
2023-04-02T17:10:30.081Z,1.23
2023-04-02T17:11:37.910Z,1.20
2023-04-02T17:12:46.219Z,1.50
2023-04-02T17:13:55.976Z,1.42
2023-04-02T17:15:05.738Z,1.67
2023-04-02T17:17:22.510Z,1.40
2023-04-02T17:18:24.933Z,1.70
2023-04-02T17:19:28.582Z,1.30
2023-04-02T17:20:33.441Z,1.63
2023-04-02T17:21:38.161Z,1.52
2023-04-02T17:22:40.679Z,1.85
2023-04-02T17:23:55.808Z,1.38
2023-04-02T17:25:01.718Z,1.58
2023-04-02T17:26:09.183Z,1.52
2023-04-02T17:27:20.446Z,1.45
2023-04-02T17:29:35.400Z,1.20
2023-04-02T17:30:43.693Z,1.13
2023-04-02T17:31:46.683Z,1.27
2023-04-02T17:32:48.956Z,1.38
2023-04-02T17:33:51.522Z,1.65
2023-04-02T17:34:53.612Z,1.67
2023-04-02T17:36:22.573Z,1.73
2023-04-02T17:37:34.300Z,1.35
2023-04-02T17:38:44.682Z,1.55
2023-04-02T17:39:54.136Z,1.33
2023-04-02T17:41:03.671Z,1.30
2023-04-02T17:42:15.511Z,1.55
2023-04-02T17:43:32.442Z,1.30
2023-04-02T17:44:50.473Z,1.23
2023-04-02T17:45:58.210Z,1.30
2023-04-02T17:47:09.783Z,1.27
2023-04-02T17:48:18.777Z,1.30
2023-04-02T17:49:28.190Z,1.23
2023-04-02T17:50:46.120Z,0.88
2023-04-02T17:51:55.741Z,1.13
2023-04-02T17:53:07.629Z,0.80
2023-04-02T17:54:22.711Z,1.10
2023-04-02T17:55:37.361Z,1.00
2023-04-02T17:57:00.430Z,1.10
2023-04-02T17:58:16.381Z,1.27
2023-04-02T17:59:44.551Z,0.90
2023-04-02T18:00:57.944Z,1.10
2023-04-02T18:02:16.854Z,1.02
2023-04-02T18:03:49.258Z,1.13
2023-04-02T18:04:59.610Z,1.10
2023-04-02T18:06:07.770Z,0.97
2023-04-02T18:07:26.012Z,0.80
2023-04-02T18:08:36.698Z,0.88
2023-04-02T18:09:46.186Z,1.27
2023-04-02T18:11:03.201Z,1.02
2023-04-02T18:12:16.755Z,0.80
2023-04-02T18:13:32.839Z,0.80
2023-04-02T18:14:53.379Z,0.93
2023-04-02T18:16:12.155Z,0.80
2023-04-02T18:17:21.629Z,0.80
2023-04-02T18:18:51.927Z,1.13
2023-04-02T18:20:01.503Z,0.98
2023-04-02T18:21:11.157Z,0.93
2023-04-02T18:22:18.705Z,0.70
2023-04-02T18:23:32.345Z,0.80
2023-04-02T18:24:46.662Z,0.80
2023-04-02T18:25:57.257Z,1.45
2023-04-02T18:27:15.097Z,1.17
2023-04-02T18:28:34.050Z,0.95
2023-04-02T18:29:43.122Z,1.20
2023-04-02T18:30:53.697Z,0.98
2023-04-02T18:32:04.744Z,0.90
2023-04-02T18:33:55.164Z,0.90
2023-04-02T18:35:07.754Z,0.90
2023-04-02T18:36:18.220Z,0.80
2023-04-02T18:37:33.325Z,0.90
2023-04-02T18:38:42.998Z,1.25
2023-04-02T18:39:59.381Z,1.00
2023-04-02T18:41:08.146Z,1.13
2023-04-02T18:42:23.282Z,1.23
2023-04-02T18:43:36.199Z,1.08
2023-04-02T18:44:54.713Z,1.08
2023-04-02T18:46:05.587Z,0.90
2023-04-02T18:47:16.183Z,0.98
2023-04-02T18:48:39.302Z,0.85
2023-04-02T18:49:48.663Z,0.77
2023-04-02T18:50:51.526Z,0.75
2023-04-02T18:51:57.372Z,0.90
2023-04-02T18:53:01.257Z,1.08
2023-04-02T18:54:14.573Z,1.05
2023-04-02T18:55:20.949Z,0.80
2023-04-02T18:56:24.654Z,0.95
2023-04-02T18:57:30.901Z,1.15
2023-04-02T18:58:42.390Z,0.80
2023-04-02T18:59:48.994Z,0.90
2023-04-02T19:00:51.906Z,1.50
2023-04-02T19:01:56.249Z,0.80
2023-04-02T19:03:06.338Z,0.90
2023-04-02T19:04:13.121Z,0.90
2023-04-02T19:05:23.249Z,0.98
2023-04-02T19:06:29.487Z,1.05
2023-04-02T19:07:37.165Z,1.15
2023-04-02T19:08:50.430Z,1.13
2023-04-02T19:09:59.620Z,1.20
2023-04-02T19:11:06.977Z,0.98
2023-04-02T19:12:16.480Z,0.98
2023-04-02T19:13:20.050Z,0.80
2023-04-02T19:14:23.333Z,0.98
2023-04-02T19:15:32.617Z,1.20
2023-04-02T19:16:59.731Z,1.05
2023-04-02T19:18:10.615Z,0.88
2023-04-02T19:19:19.133Z,0.70
2023-04-02T19:20:30.519Z,1.00
2023-04-02T19:21:40.487Z,1.10
2023-04-02T19:22:52.469Z,0.68
2023-04-02T19:24:05.978Z,1.10
2023-04-02T19:25:29.000Z,0.95
2023-04-02T19:26:38.077Z,1.02
2023-04-02T19:28:00.805Z,1.23
2023-04-02T19:29:15.420Z,1.10
2023-04-02T19:30:37.871Z,0.82
2023-04-02T19:31:49.133Z,1.15
2023-04-02T19:34:08.321Z,0.80
2023-04-02T19:35:19.934Z,1.13
2023-04-02T19:36:48.328Z,1.13
2023-04-02T19:37:58.980Z,0.75
2023-04-02T19:39:14.336Z,0.90
2023-04-02T19:40:27.154Z,1.10
2023-04-02T19:41:36.332Z,1.08
2023-04-02T19:42:46.064Z,1.25
2023-04-02T19:43:48.360Z,0.98
2023-04-02T19:44:51.899Z,1.10
2023-04-02T19:45:54.660Z,0.90
2023-04-02T19:46:56.856Z,1.20
2023-04-02T19:48:01.841Z,1.60
2023-04-02T19:49:08.052Z,1.20
2023-04-02T19:50:10.708Z,1.40
2023-04-02T19:51:13.019Z,1.10
2023-04-02T19:52:15.478Z,1.23
2023-04-02T19:53:18.141Z,1.50
2023-04-02T19:54:20.520Z,1.30
2023-04-02T19:55:22.664Z,1.15
2023-04-02T19:56:32.797Z,1.55
2023-04-02T19:57:35.031Z,1.30
2023-04-02T19:58:37.313Z,1.75
2023-04-02T19:59:39.431Z,1.85
2023-04-02T20:00:41.595Z,1.75
2023-04-02T20:01:43.800Z,1.40
2023-04-02T20:02:46.083Z,1.42
2023-04-02T20:03:48.299Z,1.58
2023-04-02T20:04:51.816Z,1.20
2023-04-02T20:05:54.330Z,1.02
2023-04-02T20:06:56.404Z,1.30
2023-04-02T20:07:58.610Z,1.20
2023-04-02T20:09:04.191Z,1.60
2023-04-02T20:10:10.828Z,1.88
2023-04-02T20:11:12.955Z,1.42
2023-04-02T20:12:15.140Z,1.75
2023-04-02T20:13:17.454Z,1.40
2023-04-02T20:14:20.941Z,1.42
2023-04-02T20:15:23.093Z,1.20
2023-04-02T20:16:25.446Z,1.08
2023-04-02T20:17:28.345Z,1.40
2023-04-02T20:18:31.487Z,1.13
2023-04-02T20:19:33.710Z,1.27
2023-04-02T20:20:37.977Z,1.63
2023-04-02T20:21:40.459Z,1.27
2023-04-02T20:22:42.553Z,1.30
2023-04-02T20:23:44.831Z,1.42
